Portada
METAR-TAF:

METAR-TAF

Aeroports :

Farmingdale, Nova York, Estats Units d'Amèrica

latitud: 40-44-03N, longitud: 073-25-01W, altitud: 24 m

Observació

L'informe es va fer fa 24 minuts, a les 00:53 UTC
Vent 3 kt del Nord-Est
Temperatura 6°C
Humitat 65%
Pressió 1031 hPa
Visibilitat: 16.1 km
Cel cobert a una alçada de 4000 ft

METAR: KFRG 010053Z AUTO 05003KT 10SM OVC040 06/00 A3045 RMK AO2 SLP312 T00560000

Hora: 21:17 (01:17 UTC)


TAF: manca

Observacions i pronòstics meteorològics de més de 4000 aeroports (METAR i TAF).

Les estacions disponibles són els punts grocs i vermells al mapa.

Posi el ratolí al punt desitjat per veure el nom de l'estació.

Feu clic per veure les observacions i els pronòstics meteorològics.

Per canviar el mapa: feu clic els botons verds amb una creu de color negre per apropar; al botó verd amb un guió per allunyar la imatge; o en les fletxes verdes per a mapes adjacents.


METAR-TAF: